Terminal Aerodrome Forecast
Issued by NWS

Home | Current Version | Previous Version | Text Only | Print | Product List | Glossary On
Versions: 1 2 3 4 5 6 7 8 9 10 11 12 13
000
FTAK31 PAJN 231138
TAFAWG
TAF
PAWG 231138Z 2312/2412 00000KT P6SM SCT040
     FM231800 32004KT P6SM SCT050
     FM240200 VRB02KT P6SM FEW080
      AMD LTD TO CLD VIS AND WIND 2312/2315=

USA.gov is the U.S. government's official web portal to all federal, state and local government web resources and services.